Time;durP1;ratioP1;P1;durP2;ratioP2;P2;SDS_P1;SDS_P2;PMS_P1;PMS_P2;Temp;Humidity;BMP_temperature;BMP_pressure;BME280_temperature;BME280_humidity;BME280_pressure;Samples;Min_cycle;Max_cycle;Signal;HPM_P1;HPM_P2
2022/05/03 00:02:06;;;;;;;10.68;5.82;;;;;;;;;;5045729;28;20061;-63
2022/05/03 00:04:52;;;;;;;8.27;5.28;;;;;;;;;;5037670;28;20056;-61
2022/05/03 00:07:24;;;;;;;11.00;6.00;;;;;;;;;;5038875;28;20409;-60
2022/05/03 00:10:03;;;;;;;9.85;5.82;;;;;;;;;;5041415;28;20049;-61
2022/05/03 00:12:36;;;;;;;9.80;6.15;;;;;;;;;;5041183;28;20045;-59
2022/05/03 00:15:05;;;;;;;10.48;6.55;;;;;;;;;;5041592;28;20479;-61
2022/05/03 00:17:34;;;;;;;10.70;6.45;;;;;;;;;;5041462;28;20045;-58
2022/05/03 00:20:01;;;;;;;9.60;5.85;;;;;;;;;;5042481;28;20045;-61
2022/05/03 00:22:29;;;;;;;11.00;6.68;;;;;;;;;;5036821;28;20053;-60
2022/05/03 00:24:58;;;;;;;10.50;6.53;;;;;;;;;;5029238;28;20063;-61
2022/05/03 00:27:26;;;;;;;11.70;6.50;;;;;;;;;;5032345;28;20356;-59
2022/05/03 00:29:54;;;;;;;11.43;7.03;;;;;;;;;;5032577;28;20053;-60
2022/05/03 00:32:22;;;;;;;9.65;6.47;;;;;;;;;;5032514;28;20136;-61
2022/05/03 00:34:49;;;;;;;9.35;6.53;;;;;;;;;;5032497;28;20140;-61
2022/05/03 00:37:17;;;;;;;9.93;6.05;;;;;;;;;;5032525;28;20136;-61
2022/05/03 00:39:43;;;;;;;12.15;7.50;;;;;;;;;;5032776;28;20050;-61
2022/05/03 00:42:18;;;;;;;10.48;6.57;;;;;;;;;;5032669;28;20049;-61
2022/05/03 00:45:08;;;;;;;9.07;6.05;;;;;;;;;;5032767;28;20472;-60
2022/05/03 00:47:54;;;;;;;10.80;7.25;;;;;;;;;;5051387;28;20247;-60
2022/05/03 00:50:33;;;;;;;10.95;6.72;;;;;;;;;;5051925;28;20056;-61
2022/05/03 00:53:09;;;;;;;9.23;6.18;;;;;;;;;;5052531;28;20084;-60
2022/05/03 00:56:06;;;;;;;8.80;5.70;;;;;;;;;;5052107;28;20052;-60
2022/05/03 00:59:04;;;;;;;11.77;7.18;;;;;;;;;;5052442;28;20084;-61
2022/05/03 01:01:40;;;;;;;11.32;7.43;;;;;;;;;;5052091;28;20071;-60
2022/05/03 01:04:22;;;;;;;11.35;7.22;;;;;;;;;;5052271;28;20139;-61
2022/05/03 01:07:14;;;;;;;10.13;6.50;;;;;;;;;;5051949;28;20049;-60
2022/05/03 01:09:42;;;;;;;11.13;6.80;;;;;;;;;;5052143;28;20053;-61
2022/05/03 01:12:23;;;;;;;11.23;7.38;;;;;;;;;;5052008;28;20052;-59
2022/05/03 01:15:01;;;;;;;;;;;;;;;;;;5052439;28;20057;-61
2022/05/03 01:17:41;;;;;;;13.00;7.88;;;;;;;;;;5052282;28;19920;-61
2022/05/03 01:20:10;;;;;;;10.55;6.85;;;;;;;;;;5052074;28;20048;-61
2022/05/03 01:23:07;;;;;;;11.90;8.07;;;;;;;;;;5051533;28;20103;-60
2022/05/03 01:26:08;;;;;;;11.55;7.93;;;;;;;;;;5051822;28;20417;-61
2022/05/03 01:29:10;;;;;;;10.75;7.13;;;;;;;;;;5051607;28;20095;-60
2022/05/03 01:31:37;;;;;;;13.00;7.90;;;;;;;;;;5051966;28;20053;-61
2022/05/03 01:34:04;;;;;;;12.85;8.13;;;;;;;;;;5052261;28;20456;-61
2022/05/03 01:36:40;;;;;;;12.57;8.00;;;;;;;;;;5051702;28;20508;-60
2022/05/03 01:39:16;;;;;;;11.45;7.43;;;;;;;;;;5051994;28;20055;-59
2022/05/03 01:41:49;;;;;;;12.15;8.15;;;;;;;;;;5051556;28;20045;-60
2022/05/03 01:44:34;;;;;;;11.13;7.70;;;;;;;;;;5052105;28;20048;-60
2022/05/03 01:47:19;;;;;;;12.20;8.10;;;;;;;;;;5037395;28;20050;-61
2022/05/03 01:53:11;;;;;;;13.30;8.15;;;;;;;;;;5031836;28;20052;-61
2022/05/03 01:56:15;;;;;;;15.35;7.63;;;;;;;;;;5031449;28;20409;-60
2022/05/03 01:59:01;;;;;;;10.50;6.68;;;;;;;;;;5031817;28;20059;-60
2022/05/03 02:01:54;;;;;;;10.63;6.53;;;;;;;;;;5032090;28;20050;-60
2022/05/03 02:04:41;;;;;;;9.65;6.20;;;;;;;;;;5031626;28;20058;-60
2022/05/03 02:07:17;;;;;;;8.98;5.57;;;;;;;;;;5031912;28;20049;-60
2022/05/03 02:10:02;;;;;;;8.85;5.65;;;;;;;;;;5031861;28;20054;-60
2022/05/03 02:12:29;;;;;;;9.18;5.68;;;;;;;;;;5031587;28;20557;-59
2022/05/03 02:15:03;;;;;;;10.38;6.43;;;;;;;;;;5031345;28;20084;-60
2022/05/03 02:17:52;;;;;;;9.85;5.97;;;;;;;;;;5031635;28;20140;-61
2022/05/03 02:20:46;;;;;;;8.27;5.30;;;;;;;;;;5031414;28;20138;-57
2022/05/03 02:23:25;;;;;;;8.68;5.88;;;;;;;;;;5031359;28;20049;-60
2022/05/03 02:26:14;;;;;;;11.27;6.55;;;;;;;;;;5031152;28;20115;-60
2022/05/03 02:28:45;;;;;;;10.82;6.95;;;;;;;;;;5031746;28;20050;-59
2022/05/03 02:31:15;;;;;;;10.35;6.68;;;;;;;;;;5031647;28;20406;-61
2022/05/03 02:33:48;;;;;;;10.32;6.95;;;;;;;;;;5031670;28;20513;-61
2022/05/03 02:36:18;;;;;;;10.65;6.20;;;;;;;;;;5034737;28;20041;-59
2022/05/03 02:38:54;;;;;;;9.43;6.20;;;;;;;;;;5035254;28;20056;-59
2022/05/03 02:41:24;;;;;;;8.80;6.45;;;;;;;;;;5034924;28;20049;-60
2022/05/03 02:43:51;;;;;;;12.10;7.37;;;;;;;;;;5034984;28;20132;-60
2022/05/03 02:46:38;;;;;;;9.98;7.25;;;;;;;;;;5042841;28;20300;-60
2022/05/03 02:49:15;;;;;;;12.48;7.30;;;;;;;;;;5054785;28;20048;-60
2022/05/03 02:51:52;;;;;;;11.35;7.43;;;;;;;;;;5055161;28;20136;-59
2022/05/03 02:54:33;;;;;;;13.52;7.60;;;;;;;;;;5054556;28;20049;-60
2022/05/03 02:57:09;;;;;;;11.70;7.13;;;;;;;;;;5054654;28;20460;-59
2022/05/03 03:02:35;;;;;;;11.65;8.10;;;;;;;;;;5054744;28;20183;-60
2022/05/03 03:05:08;;;;;;;14.60;9.07;;;;;;;;;;5054327;28;20061;-60
2022/05/03 03:07:44;;;;;;;14.77;9.65;;;;;;;;;;5054457;28;20048;-60
2022/05/03 03:10:15;;;;;;;15.98;9.60;;;;;;;;;;5054117;28;20053;-60
2022/05/03 03:12:51;;;;;;;16.27;10.60;;;;;;;;;;5054547;28;20053;-61
2022/05/03 03:15:25;;;;;;;17.35;11.15;;;;;;;;;;5053821;28;20051;-60
2022/05/03 03:17:53;;;;;;;17.33;9.75;;;;;;;;;;5048766;28;20049;-60
2022/05/03 03:20:25;;;;;;;16.13;10.23;;;;;;;;;;5034571;28;20498;-59
2022/05/03 03:22:52;;;;;;;17.23;10.82;;;;;;;;;;5034340;28;20056;-61
2022/05/03 03:25:20;;;;;;;16.92;11.20;;;;;;;;;;5033906;28;20475;-60
2022/05/03 03:27:48;;;;;;;17.25;10.55;;;;;;;;;;5033671;28;20045;-60
2022/05/03 03:30:16;;;;;;;18.50;11.02;;;;;;;;;;5033593;28;20054;-59
2022/05/03 03:32:47;;;;;;;16.02;10.45;;;;;;;;;;5034251;28;20616;-60
2022/05/03 03:35:15;;;;;;;14.60;9.40;;;;;;;;;;5033989;28;20064;-61
2022/05/03 03:37:45;;;;;;;13.85;9.50;;;;;;;;;;5033960;28;20478;-60
2022/05/03 03:40:14;;;;;;;15.57;10.35;;;;;;;;;;5034125;28;20053;-61
2022/05/03 03:42:42;;;;;;;15.65;9.50;;;;;;;;;;5033950;28;20060;-61
2022/05/03 03:45:11;;;;;;;15.95;9.80;;;;;;;;;;5033385;28;20052;-58
2022/05/03 03:47:39;;;;;;;16.63;10.30;;;;;;;;;;5052942;28;20049;-59
2022/05/03 03:50:07;;;;;;;16.92;10.38;;;;;;;;;;5053536;28;20055;-60
2022/05/03 03:52:35;;;;;;;15.27;8.75;;;;;;;;;;5053590;28;20515;-60
2022/05/03 03:55:04;;;;;;;15.80;9.50;;;;;;;;;;5053104;28;20052;-60
2022/05/03 03:57:32;;;;;;;17.25;9.82;;;;;;;;;;5053609;28;20056;-59
2022/05/03 04:00:01;;;;;;;15.38;10.20;;;;;;;;;;5053287;28;20136;-60
2022/05/03 04:02:28;;;;;;;16.27;10.07;;;;;;;;;;5065199;22;20132;-79
2022/05/03 04:04:56;;;;;;;16.38;11.20;;;;;;;;;;5042312;28;20056;-79
2022/05/03 04:07:23;;;;;;;17.48;10.63;;;;;;;;;;5042714;28;20050;-79
2022/05/03 04:09:50;;;;;;;15.10;9.88;;;;;;;;;;5036718;28;20049;-79
2022/05/03 04:12:20;;;;;;;14.55;10.52;;;;;;;;;;5046924;28;20095;-80
2022/05/03 04:14:47;;;;;;;15.60;10.18;;;;;;;;;;5058662;28;20087;-78
2022/05/03 04:17:14;;;;;;;13.70;9.30;;;;;;;;;;5072418;28;20073;-79
2022/05/03 04:19:42;;;;;;;17.50;9.95;;;;;;;;;;5072100;28;20055;-79
2022/05/03 04:22:24;;;;;;;15.65;9.52;;;;;;;;;;5069869;28;20073;-79
2022/05/03 04:24:52;;;;;;;16.60;9.95;;;;;;;;;;5063725;28;20045;-79
2022/05/03 04:27:21;;;;;;;15.68;9.80;;;;;;;;;;5058909;28;20055;-79
2022/05/03 04:29:48;;;;;;;14.95;9.82;;;;;;;;;;5058407;28;20522;-79
2022/05/03 04:32:15;;;;;;;15.77;11.02;;;;;;;;;;5057920;28;20428;-79
2022/05/03 04:34:41;;;;;;;16.50;10.40;;;;;;;;;;5056765;28;20095;-79
2022/05/03 04:37:08;;;;;;;18.83;11.40;;;;;;;;;;5056704;28;20103;-78
2022/05/03 04:39:35;;;;;;;15.60;10.02;;;;;;;;;;5057003;28;20045;-78
2022/05/03 04:42:02;;;;;;;13.70;9.18;;;;;;;;;;5056357;28;20076;-77
2022/05/03 04:44:30;;;;;;;15.82;10.05;;;;;;;;;;5053139;28;20044;-78
2022/05/03 04:46:57;;;;;;;13.77;9.57;;;;;;;;;;5067631;28;20110;-78
2022/05/03 04:49:24;;;;;;;14.27;9.40;;;;;;;;;;5073839;28;20053;-79
2022/05/03 04:51:51;;;;;;;20.48;13.57;;;;;;;;;;5075208;28;20049;-79
2022/05/03 04:54:18;;;;;;;20.48;12.68;;;;;;;;;;5075322;28;20048;-78
2022/05/03 04:56:50;;;;;;;13.00;8.18;;;;;;;;;;5074936;28;20131;-78
2022/05/03 04:59:17;;;;;;;12.45;7.47;;;;;;;;;;5074974;28;20040;-78
2022/05/03 05:01:45;;;;;;;11.75;8.07;;;;;;;;;;5073973;28;20404;-78
2022/05/03 05:04:12;;;;;;;12.38;7.78;;;;;;;;;;5073861;28;20475;-78
2022/05/03 05:06:39;;;;;;;11.07;7.88;;;;;;;;;;5073999;28;20414;-79
2022/05/03 05:09:06;;;;;;;13.25;8.70;;;;;;;;;;5075177;28;20108;-79
2022/05/03 05:11:32;;;;;;;11.40;7.78;;;;;;;;;;5074553;28;20048;-79
2022/05/03 05:13:59;;;;;;;11.00;7.97;;;;;;;;;;5074490;28;20049;-78
2022/05/03 05:16:26;;;;;;;12.52;8.77;;;;;;;;;;5073365;28;20487;-78
2022/05/03 05:18:54;;;;;;;11.30;7.82;;;;;;;;;;5073902;28;20044;-78
2022/05/03 05:21:21;;;;;;;11.95;7.68;;;;;;;;;;5074348;28;20049;-79
2022/05/03 05:23:48;;;;;;;10.73;7.32;;;;;;;;;;5074368;28;20106;-79
2022/05/03 05:26:15;;;;;;;11.43;6.68;;;;;;;;;;5074480;28;20052;-78
2022/05/03 05:28:42;;;;;;;11.13;6.28;;;;;;;;;;5074628;28;20106;-80
2022/05/03 05:31:08;;;;;;;9.00;6.28;;;;;;;;;;5075601;28;20048;-79
2022/05/03 05:33:35;;;;;;;9.80;6.28;;;;;;;;;;5078396;28;20045;-79
2022/05/03 05:36:04;;;;;;;10.10;6.80;;;;;;;;;;5079912;28;20395;-79
2022/05/03 05:38:31;;;;;;;11.95;7.22;;;;;;;;;;5080001;28;20049;-80
2022/05/03 05:40:58;;;;;;;9.15;5.90;;;;;;;;;;5077375;28;20049;-79
2022/05/03 05:43:25;;;;;;;10.20;5.88;;;;;;;;;;5076040;28;20091;-79
2022/05/03 05:45:52;;;;;;;8.73;5.57;;;;;;;;;;5070990;28;20037;-79
2022/05/03 05:48:20;;;;;;;10.10;6.20;;;;;;;;;;5056115;28;20052;-79
2022/05/03 05:50:46;;;;;;;8.63;5.57;;;;;;;;;;5057338;28;20056;-79
2022/05/03 05:53:32;;;;;;;9.23;6.25;;;;;;;;;;5071074;28;20479;-78
2022/05/03 05:55:58;;;;;;;10.05;6.28;;;;;;;;;;5067880;28;20061;-79
2022/05/03 05:58:25;;;;;;;12.63;8.40;;;;;;;;;;5058826;28;20049;-80
2022/05/03 06:00:52;;;;;;;13.70;8.13;;;;;;;;;;5057064;28;20110;-79
2022/05/03 06:03:20;;;;;;;11.93;7.35;;;;;;;;;;5056231;28;20045;-79
2022/05/03 06:05:47;;;;;;;11.38;7.35;;;;;;;;;;5056324;28;20140;-79
2022/05/03 06:08:15;;;;;;;10.15;6.50;;;;;;;;;;5059217;28;20045;-80
2022/05/03 06:10:42;;;;;;;9.00;5.80;;;;;;;;;;5061450;28;20053;-78
2022/05/03 06:13:10;;;;;;;10.27;6.13;;;;;;;;;;5059912;28;20139;-79
2022/05/03 06:15:37;;;;;;;8.00;5.70;;;;;;;;;;5060140;28;20067;-79
2022/05/03 06:18:06;;;;;;;7.43;5.40;;;;;;;;;;5060593;28;20056;-79
2022/05/03 06:20:33;;;;;;;10.02;6.32;;;;;;;;;;5060807;28;20051;-78
2022/05/03 06:23:00;;;;;;;11.45;6.03;;;;;;;;;;5062992;28;20079;-78
2022/05/03 06:25:28;;;;;;;11.07;6.10;;;;;;;;;;5061109;28;20114;-78
2022/05/03 06:27:55;;;;;;;10.75;5.50;;;;;;;;;;5060669;28;20048;-80
2022/05/03 06:30:22;;;;;;;9.88;5.82;;;;;;;;;;5057404;28;20049;-78
2022/05/03 06:32:48;;;;;;;10.00;6.20;;;;;;;;;;5056698;28;20240;-78
2022/05/03 06:35:15;;;;;;;10.80;6.50;;;;;;;;;;5058594;28;20045;-78
2022/05/03 06:37:43;;;;;;;11.82;6.32;;;;;;;;;;5058647;28;20474;-78
2022/05/03 06:40:11;;;;;;;11.48;6.50;;;;;;;;;;5058396;28;20056;-78
2022/05/03 06:42:40;;;;;;;12.73;7.30;;;;;;;;;;5056820;28;20102;-78
2022/05/03 06:45:09;;;;;;;9.65;6.05;;;;;;;;;;5056962;28;20454;-78
2022/05/03 06:47:36;;;;;;;9.43;5.63;;;;;;;;;;5077114;28;20437;-78
2022/05/03 06:50:03;;;;;;;9.40;5.90;;;;;;;;;;5077802;28;20055;-79
2022/05/03 06:52:30;;;;;;;8.57;5.63;;;;;;;;;;5078242;28;20453;-78
2022/05/03 06:54:57;;;;;;;9.13;5.97;;;;;;;;;;5079942;28;20067;-78
2022/05/03 06:57:24;;;;;;;10.23;6.68;;;;;;;;;;5089187;28;20071;-78
2022/05/03 06:59:52;;;;;;;9.68;5.53;;;;;;;;;;5087123;28;20059;-78
2022/05/03 07:02:19;;;;;;;9.15;5.60;;;;;;;;;;5088044;28;20060;-78
2022/05/03 07:04:46;;;;;;;9.90;6.38;;;;;;;;;;5085234;28;20083;-78
2022/05/03 07:07:13;;;;;;;11.25;7.00;;;;;;;;;;5084578;28;20045;-78
2022/05/03 07:09:41;;;;;;;8.57;6.03;;;;;;;;;;5080058;28;20071;-79
2022/05/03 07:12:09;;;;;;;8.07;5.60;;;;;;;;;;5079484;28;20144;-79
2022/05/03 07:14:36;;;;;;;9.63;5.20;;;;;;;;;;5079084;28;20502;-79
2022/05/03 07:17:05;;;;;;;7.93;4.55;;;;;;;;;;5079550;28;20057;-79
2022/05/03 07:22:49;;;;;;;7.43;4.97;;;;;;;;;;5014176;28;20200;-79
2022/05/03 07:25:17;;;;;;;7.03;4.30;;;;;;;;;;5000430;28;20069;-79
2022/05/03 07:27:46;;;;;;;9.25;4.25;;;;;;;;;;5017696;28;20128;-80
2022/05/03 07:30:14;;;;;;;9.65;5.07;;;;;;;;;;5035667;28;20132;-78
2022/05/03 07:32:42;;;;;;;8.30;4.40;;;;;;;;;;5035205;28;20556;-79
2022/05/03 07:35:10;;;;;;;9.63;4.97;;;;;;;;;;5034584;28;20046;-79
2022/05/03 07:37:37;;;;;;;8.55;4.50;;;;;;;;;;5034739;28;20049;-78
2022/05/03 07:40:04;;;;;;;7.50;4.60;;;;;;;;;;5035040;28;20041;-78
2022/05/03 07:42:31;;;;;;;17.33;10.10;;;;;;;;;;5034853;28;20050;-79
2022/05/03 07:44:58;;;;;;;9.18;5.35;;;;;;;;;;5035555;28;20103;-78
2022/05/03 07:47:25;;;;;;;20.67;10.18;;;;;;;;;;5068955;28;20048;-78
2022/05/03 07:49:53;;;;;;;13.13;6.43;;;;;;;;;;5073235;28;20048;-80
2022/05/03 07:52:20;;;;;;;11.18;5.50;;;;;;;;;;5076620;28;20074;-79
2022/05/03 07:54:47;;;;;;;7.40;4.95;;;;;;;;;;5072748;28;20045;-79
2022/05/03 07:57:14;;;;;;;8.02;4.90;;;;;;;;;;5036995;28;20049;-79
2022/05/03 07:59:41;;;;;;;8.98;5.32;;;;;;;;;;5037413;28;20108;-79
2022/05/03 08:02:08;;;;;;;8.43;4.80;;;;;;;;;;5038744;28;20045;-79
2022/05/03 08:04:35;;;;;;;8.50;5.25;;;;;;;;;;5051072;28;20053;-79
2022/05/03 08:07:04;;;;;;;8.13;4.97;;;;;;;;;;5056001;28;20060;-79
2022/05/03 08:09:32;;;;;;;8.05;4.78;;;;;;;;;;5054796;28;20052;-79
2022/05/03 08:12:00;;;;;;;12.10;5.72;;;;;;;;;;5055585;28;20045;-79
2022/05/03 08:14:27;;;;;;;7.43;4.50;;;;;;;;;;5056758;28;20049;-79
2022/05/03 08:16:56;;;;;;;9.05;4.70;;;;;;;;;;5060101;28;20049;-79
2022/05/03 08:19:23;;;;;;;8.02;4.70;;;;;;;;;;5061573;28;20117;-80
2022/05/03 08:21:52;;;;;;;6.90;4.40;;;;;;;;;;5058765;28;20122;-79
2022/05/03 08:24:21;;;;;;;9.13;5.03;;;;;;;;;;5060491;28;20095;-80
2022/05/03 08:26:47;;;;;;;7.93;5.53;;;;;;;;;;5059542;28;20167;-78
2022/05/03 08:29:14;;;;;;;8.75;6.10;;;;;;;;;;5056461;28;20056;-79
2022/05/03 08:31:42;;;;;;;7.75;5.22;;;;;;;;;;5054376;28;20106;-79
2022/05/03 08:34:09;;;;;;;8.07;4.90;;;;;;;;;;5053183;28;20618;-79
2022/05/03 08:36:36;;;;;;;9.77;6.38;;;;;;;;;;5053028;28;20048;-78
2022/05/03 08:42:06;;;;;;;10.15;5.32;;;;;;;;;;5017044;28;20064;-78
2022/05/03 08:44:34;;;;;;;9.93;6.30;;;;;;;;;;5050990;28;20045;-77
2022/05/03 08:47:02;;;;;;;8.20;5.07;;;;;;;;;;5065239;28;20131;-76
2022/05/03 08:49:41;;;;;;;5.93;3.95;;;;;;;;;;5072086;28;20048;-77
2022/05/03 08:52:10;;;;;;;7.13;4.53;;;;;;;;;;5072191;28;20473;-78
2022/05/03 08:54:37;;;;;;;6.18;4.13;;;;;;;;;;5071541;28;20044;-79
2022/05/03 08:57:08;;;;;;;6.63;4.38;;;;;;;;;;5073827;28;20052;-78
2022/05/03 08:59:36;;;;;;;8.30;4.72;;;;;;;;;;5072432;28;20056;-79
2022/05/03 09:02:05;;;;;;;9.95;4.85;;;;;;;;;;5074625;28;20064;-79
2022/05/03 09:04:32;;;;;;;7.78;4.10;;;;;;;;;;5074791;28;20060;-79
2022/05/03 09:07:17;;;;;;;6.55;4.35;;;;;;;;;;5075325;28;20503;-78
2022/05/03 09:09:44;;;;;;;8.77;5.05;;;;;;;;;;5074157;28;20040;-78
2022/05/03 09:12:26;;;;;;;11.23;7.43;;;;;;;;;;5073654;28;20170;-79
2022/05/03 09:14:55;;;;;;;12.38;7.25;;;;;;;;;;5073790;28;20410;-77
2022/05/03 09:17:35;;;;;;;10.73;6.53;;;;;;;;;;5073686;28;20055;-77
2022/05/03 09:23:46;;;;;;;10.10;7.43;;;;;;;;;;5075657;28;20479;-78
2022/05/03 09:25:47;;;;;;;12.82;8.60;;;;;;;;;;5072911;28;20056;-76
2022/05/03 09:28:15;;;;;;;12.90;7.22;;;;;;;;;;5074194;28;20525;-78
2022/05/03 09:30:50;;;;;;;9.80;7.38;;;;;;;;;;5073317;28;20098;-77
2022/05/03 09:33:18;;;;;;;9.82;6.85;;;;;;;;;;5074188;28;20044;-76
2022/05/03 09:35:45;;;;;;;9.15;6.22;;;;;;;;;;5073539;28;20048;-78
2022/05/03 09:38:12;;;;;;;11.85;7.25;;;;;;;;;;5086457;28;20123;-77
2022/05/03 09:40:43;;;;;;;11.73;7.50;;;;;;;;;;5081506;28;20066;-77
2022/05/03 09:43:09;;;;;;;;;;;;;;;;;;5076720;28;20135;-77
2022/05/03 09:45:38;;;;;;;12.40;8.13;;;;;;;;;;5078611;28;19927;-77
2022/05/03 09:48:06;;;;;;;12.55;8.18;;;;;;;;;;5077288;28;20056;-77
2022/05/03 09:50:41;;;;;;;10.85;8.20;;;;;;;;;;5077794;28;20044;-77
2022/05/03 09:53:11;;;;;;;12.93;9.00;;;;;;;;;;5078614;28;20127;-78
2022/05/03 09:55:40;;;;;;;15.75;10.02;;;;;;;;;;5078653;28;20044;-78
2022/05/03 09:58:10;;;;;;;11.98;8.65;;;;;;;;;;5079076;28;20102;-77
2022/05/03 10:00:40;;;;;;;10.43;7.40;;;;;;;;;;5087461;28;20113;-79
2022/05/03 10:03:09;;;;;;;12.35;7.32;;;;;;;;;;5097282;28;20036;-79
2022/05/03 10:05:37;;;;;;;13.98;9.32;;;;;;;;;;5100572;28;20032;-79
2022/05/03 10:08:05;;;;;;;20.33;13.32;;;;;;;;;;5099813;28;20032;-78
2022/05/03 10:10:33;;;;;;;9.68;6.60;;;;;;;;;;5100945;28;20118;-78
2022/05/03 10:13:00;;;;;;;9.88;6.38;;;;;;;;;;5099338;28;20024;-83
2022/05/03 10:21:10;;;;;;;12.52;7.25;;;;;;;;;;5052719;28;20110;-64
2022/05/03 10:23:37;;;;;;;10.20;7.00;;;;;;;;;;5053316;28;20057;-65
2022/05/03 10:26:06;;;;;;;7.95;6.00;;;;;;;;;;5053110;28;20052;-67
2022/05/03 10:29:08;;;;;;;8.43;6.05;;;;;;;;;;5053161;28;20071;-65
2022/05/03 10:32:02;;;;;;;8.20;5.60;;;;;;;;;;5052949;28;20140;-66
2022/05/03 10:34:51;;;;;;;8.15;5.95;;;;;;;;;;5052848;28;20049;-66
2022/05/03 10:37:20;;;;;;;7.82;5.65;;;;;;;;;;5052773;28;20064;-64
2022/05/03 10:39:51;;;;;;;9.35;5.75;;;;;;;;;;5052372;28;20060;-66
2022/05/03 10:42:22;;;;;;;9.93;5.22;;;;;;;;;;5052543;28;20052;-66
2022/05/03 10:44:58;;;;;;;6.40;4.32;;;;;;;;;;5052514;28;20118;-71
2022/05/03 10:47:52;;;;;;;7.55;5.68;;;;;;;;;;5051915;28;20494;-69
2022/05/03 10:50:38;;;;;;;20.10;12.30;;;;;;;;;;5052504;28;20076;-67
2022/05/03 10:53:24;;;;;;;21.13;10.82;;;;;;;;;;5051822;28;20048;-66
2022/05/03 10:56:19;;;;;;;12.82;6.70;;;;;;;;;;5051130;28;20045;-66
2022/05/03 10:59:01;;;;;;;10.98;6.30;;;;;;;;;;5052271;28;20416;-67
2022/05/03 11:01:28;;;;;;;11.57;6.70;;;;;;;;;;5049887;28;20059;-65
2022/05/03 11:04:12;;;;;;;10.65;6.63;;;;;;;;;;5052386;28;20052;-67
2022/05/03 11:06:42;;;;;;;13.32;7.97;;;;;;;;;;5052159;28;20045;-66
2022/05/03 11:09:11;;;;;;;15.32;9.90;;;;;;;;;;5052164;28;20111;-66
2022/05/03 11:11:52;;;;;;;14.63;9.00;;;;;;;;;;5052269;28;20378;-66
2022/05/03 11:14:50;;;;;;;9.75;7.60;;;;;;;;;;5052105;28;20049;-66
2022/05/03 11:17:18;;;;;;;15.15;9.70;;;;;;;;;;5046088;28;20045;-66
2022/05/03 11:19:51;;;;;;;13.00;8.48;;;;;;;;;;5052398;28;20464;-66
2022/05/03 11:22:21;;;;;;;12.15;8.32;;;;;;;;;;5052185;28;20045;-65
2022/05/03 11:24:49;;;;;;;13.30;8.93;;;;;;;;;;5051943;28;20045;-66
2022/05/03 11:27:17;;;;;;;13.15;9.00;;;;;;;;;;5051853;28;20045;-66
2022/05/03 11:29:46;;;;;;;13.75;9.15;;;;;;;;;;5051734;28;20555;-66
2022/05/03 11:32:14;;;;;;;12.43;9.10;;;;;;;;;;5051753;28;20568;-66
2022/05/03 11:34:42;;;;;;;12.38;8.93;;;;;;;;;;5051637;28;20049;-66
2022/05/03 11:37:09;;;;;;;11.32;7.40;;;;;;;;;;5051865;28;20053;-66
2022/05/03 11:39:37;;;;;;;11.13;7.82;;;;;;;;;;5051831;28;20417;-66
2022/05/03 11:42:06;;;;;;;11.60;8.13;;;;;;;;;;5051755;28;20052;-65
2022/05/03 11:44:34;;;;;;;16.15;11.27;;;;;;;;;;5051494;28;20049;-66
2022/05/03 11:47:03;;;;;;;11.43;8.23;;;;;;;;;;5051554;28;20412;-66
2022/05/03 11:49:32;;;;;;;14.35;10.40;;;;;;;;;;5051610;28;20052;-65
2022/05/03 11:57:35;;;;;;;13.38;8.00;;;;;;;;;;5051140;28;20060;-67
2022/05/03 12:00:05;;;;;;;13.57;8.70;;;;;;;;;;5051051;28;20094;-66
2022/05/03 12:02:34;;;;;;;13.48;8.75;;;;;;;;;;5051604;28;20152;-66
2022/05/03 12:05:17;;;;;;;12.20;7.30;;;;;;;;;;5051517;28;20045;-65
2022/05/03 12:07:48;;;;;;;11.30;6.15;;;;;;;;;;5050399;28;20052;-66
2022/05/03 12:10:21;;;;;;;10.93;7.75;;;;;;;;;;5051083;28;20045;-66
2022/05/03 12:13:03;;;;;;;13.25;6.60;;;;;;;;;;5051120;28;20049;-66
2022/05/03 12:15:31;;;;;;;11.38;7.65;;;;;;;;;;5049723;28;20049;-66
2022/05/03 12:18:01;;;;;;;11.18;6.85;;;;;;;;;;5051057;28;20053;-66
2022/05/03 12:20:40;;;;;;;13.35;8.25;;;;;;;;;;5050992;28;20133;-64
2022/05/03 12:23:19;;;;;;;15.18;8.52;;;;;;;;;;5050822;28;20051;-66
2022/05/03 12:25:49;;;;;;;10.40;6.75;;;;;;;;;;5050833;28;20412;-66
2022/05/03 12:28:17;;;;;;;11.13;7.72;;;;;;;;;;5051342;28;20052;-66
2022/05/03 12:30:44;;;;;;;12.40;8.35;;;;;;;;;;5050841;28;20068;-66
2022/05/03 12:33:15;;;;;;;11.57;7.90;;;;;;;;;;5051107;28;20478;-66
2022/05/03 12:35:42;;;;;;;;;;;;;;;;;;5051078;28;20047;-67
2022/05/03 12:38:14;;;;;;;10.95;7.05;;;;;;;;;;5050779;28;20278;-66
2022/05/03 12:40:47;;;;;;;14.52;9.27;;;;;;;;;;5051173;28;20045;-65
2022/05/03 12:43:16;;;;;;;12.18;7.40;;;;;;;;;;5050392;28;20052;-66
2022/05/03 12:45:43;;;;;;;9.75;7.25;;;;;;;;;;5050723;28;20348;-66
2022/05/03 12:48:10;;;;;;;11.25;7.30;;;;;;;;;;5049896;28;20128;-66
2022/05/03 12:50:38;;;;;;;14.27;9.20;;;;;;;;;;5050656;28;20410;-67
2022/05/03 12:53:05;;;;;;;10.98;7.20;;;;;;;;;;5050370;28;20264;-66
2022/05/03 12:55:32;;;;;;;9.88;6.97;;;;;;;;;;5050531;28;20489;-66
2022/05/03 13:00:45;;;;;;;12.23;7.07;;;;;;;;;;5050046;28;20064;-65
2022/05/03 13:03:12;;;;;;;13.77;7.38;;;;;;;;;;5050357;28;20045;-66
2022/05/03 13:05:39;;;;;;;9.75;6.38;;;;;;;;;;5050140;28;20053;-66
2022/05/03 13:08:07;;;;;;;11.80;7.07;;;;;;;;;;5050077;28;20565;-67
2022/05/03 13:10:37;;;;;;;7.65;5.45;;;;;;;;;;5049732;28;20068;-66
2022/05/03 13:13:06;;;;;;;12.05;6.28;;;;;;;;;;5049740;28;20049;-66
2022/05/03 13:15:33;;;;;;;10.48;6.90;;;;;;;;;;5050064;28;20060;-65
2022/05/03 13:18:01;;;;;;;9.25;6.18;;;;;;;;;;5049328;28;20049;-66
2022/05/03 13:20:28;;;;;;;11.25;6.65;;;;;;;;;;5049836;28;20081;-66
2022/05/03 13:22:55;;;;;;;9.30;6.63;;;;;;;;;;5049750;28;20049;-66
2022/05/03 13:25:23;;;;;;;10.13;6.55;;;;;;;;;;5049487;28;20146;-66
2022/05/03 13:27:51;;;;;;;9.43;6.20;;;;;;;;;;5049794;28;20133;-65
2022/05/03 13:30:19;;;;;;;9.93;6.07;;;;;;;;;;5049945;28;20143;-66
2022/05/03 13:32:46;;;;;;;10.05;6.22;;;;;;;;;;5050263;28;20057;-66
2022/05/03 13:35:13;;;;;;;8.63;6.10;;;;;;;;;;5050155;28;20433;-66
2022/05/03 13:40:31;;;;;;;10.18;6.57;;;;;;;;;;5050270;28;20134;-65
2022/05/03 13:42:59;;;;;;;8.82;5.85;;;;;;;;;;5049875;28;20045;-66
2022/05/03 13:45:28;;;;;;;8.45;5.85;;;;;;;;;;5049954;28;20045;-66
2022/05/03 13:47:55;;;;;;;7.47;5.00;;;;;;;;;;5050002;28;20041;-67
2022/05/03 13:50:23;;;;;;;7.25;5.38;;;;;;;;;;5049956;28;20084;-67
2022/05/03 13:52:50;;;;;;;10.02;5.78;;;;;;;;;;5050248;28;20055;-65
2022/05/03 13:55:17;;;;;;;7.22;4.90;;;;;;;;;;5049988;28;20052;-66
2022/05/03 13:57:44;;;;;;;7.55;4.72;;;;;;;;;;5050007;28;20067;-67
2022/05/03 14:00:12;;;;;;;10.07;5.60;;;;;;;;;;5049848;28;20124;-66
2022/05/03 14:02:42;;;;;;;7.97;5.30;;;;;;;;;;5049735;28;20409;-67
2022/05/03 14:05:10;;;;;;;8.70;5.50;;;;;;;;;;5050163;28;20059;-66
2022/05/03 14:07:38;;;;;;;12.95;7.57;;;;;;;;;;5049887;28;20059;-66
2022/05/03 14:10:06;;;;;;;8.98;5.15;;;;;;;;;;5049532;28;20057;-65
2022/05/03 14:12:33;;;;;;;10.63;7.18;;;;;;;;;;5049718;28;20255;-66
2022/05/03 14:15:00;;;;;;;8.98;5.13;;;;;;;;;;5049316;28;20387;-66
2022/05/03 14:17:27;;;;;;;9.00;5.50;;;;;;;;;;5049642;28;20044;-66
2022/05/03 14:19:56;;;;;;;6.47;4.78;;;;;;;;;;5048642;28;20132;-65
2022/05/03 14:22:25;;;;;;;7.72;5.18;;;;;;;;;;5053765;28;20061;-68
2022/05/03 14:24:52;;;;;;;8.40;5.87;;;;;;;;;;5049328;28;20045;-67
2022/05/03 14:27:19;;;;;;;7.88;5.53;;;;;;;;;;5049555;28;20505;-67
2022/05/03 14:29:46;;;;;;;6.80;5.20;;;;;;;;;;5052081;28;20132;-67
2022/05/03 14:32:13;;;;;;;8.10;4.28;;;;;;;;;;5053226;28;20067;-66
2022/05/03 14:34:41;;;;;;;9.35;5.72;;;;;;;;;;5052674;28;20510;-67
2022/05/03 14:37:09;;;;;;;6.47;5.07;;;;;;;;;;5052744;28;20052;-67
2022/05/03 14:39:36;;;;;;;7.20;5.07;;;;;;;;;;5052523;28;20128;-67
2022/05/03 14:42:05;;;;;;;7.63;4.82;;;;;;;;;;5052804;28;20044;-68
2022/05/03 14:44:32;;;;;;;7.00;4.82;;;;;;;;;;5052806;28;20502;-67
2022/05/03 14:46:59;;;;;;;6.35;4.63;;;;;;;;;;5066314;28;20138;-67
2022/05/03 14:49:26;;;;;;;7.75;4.68;;;;;;;;;;5072428;28;20048;-67
2022/05/03 14:51:54;;;;;;;7.50;4.70;;;;;;;;;;5072308;28;20053;-68
2022/05/03 14:54:22;;;;;;;6.70;4.30;;;;;;;;;;5072684;28;20049;-68
2022/05/03 15:05:06;;;;;;;7.70;4.75;;;;;;;;;;5072578;28;20102;-65
2022/05/03 15:07:33;;;;;;;5.88;4.35;;;;;;;;;;5064307;28;20076;-65
2022/05/03 15:10:01;;;;;;;8.80;5.90;;;;;;;;;;5051885;28;20170;-65
2022/05/03 15:12:30;;;;;;;6.40;4.82;;;;;;;;;;5052237;28;20076;-65
2022/05/03 15:14:57;;;;;;;7.72;5.10;;;;;;;;;;5052505;28;20368;-63
2022/05/03 15:17:24;;;;;;;8.20;5.95;;;;;;;;;;5053034;28;20052;-64
2022/05/03 15:19:51;;;;;;;7.90;4.88;;;;;;;;;;5052245;28;20566;-64
2022/05/03 15:22:19;;;;;;;10.50;5.85;;;;;;;;;;5051762;28;20505;-64
2022/05/03 15:24:45;;;;;;;8.18;5.07;;;;;;;;;;5052159;28;20060;-65
2022/05/03 15:27:14;;;;;;;5.55;4.13;;;;;;;;;;5052218;28;20418;-64
2022/05/03 15:29:42;;;;;;;7.03;4.20;;;;;;;;;;5051907;28;20045;-65
2022/05/03 15:32:27;;;;;;;6.70;4.68;;;;;;;;;;5052223;28;20486;-64
2022/05/03 15:34:55;;;;;;;5.95;4.40;;;;;;;;;;5052054;28;20130;-64
2022/05/03 15:37:22;;;;;;;6.50;4.25;;;;;;;;;;5051640;28;20071;-64
2022/05/03 15:39:51;;;;;;;6.32;4.68;;;;;;;;;;5051662;28;20047;-64